sensor_id;sensor_type;location;lat;lon;timestamp;temperature;humidity
17807;DHT22;9027;48.938;9.182;2022-08-21T00:00:59;17.90;99.90
17807;DHT22;9027;48.938;9.182;2022-08-21T00:02:32;17.90;99.90
17807;DHT22;9027;48.938;9.182;2022-08-21T00:04:05;17.80;99.90
17807;DHT22;9027;48.938;9.182;2022-08-21T00:05:40;17.70;99.90
17807;DHT22;9027;48.938;9.182;2022-08-21T00:07:14;17.60;99.90
17807;DHT22;9027;48.938;9.182;2022-08-21T00:08:46;17.50;99.90
17807;DHT22;9027;48.938;9.182;2022-08-21T00:10:19;17.40;99.90
17807;DHT22;9027;48.938;9.182;2022-08-21T00:11:50;17.30;99.90
17807;DHT22;9027;48.938;9.182;2022-08-21T00:13:22;17.30;99.90
17807;DHT22;9027;48.938;9.182;2022-08-21T00:14:54;17.10;99.90
17807;DHT22;9027;48.938;9.182;2022-08-21T00:16:26;17.00;99.90
17807;DHT22;9027;48.938;9.182;2022-08-21T00:17:58;16.90;99.90
17807;DHT22;9027;48.938;9.182;2022-08-21T00:19:30;17.00;99.90
17807;DHT22;9027;48.938;9.182;2022-08-21T00:21:02;17.10;99.90
17807;DHT22;9027;48.938;9.182;2022-08-21T00:22:36;17.10;99.90
17807;DHT22;9027;48.938;9.182;2022-08-21T00:24:08;17.20;99.90
17807;DHT22;9027;48.938;9.182;2022-08-21T00:25:41;17.30;99.90
17807;DHT22;9027;48.938;9.182;2022-08-21T00:27:13;17.30;99.90
17807;DHT22;9027;48.938;9.182;2022-08-21T00:28:44;17.30;99.90
17807;DHT22;9027;48.938;9.182;2022-08-21T00:30:17;17.40;99.90
17807;DHT22;9027;48.938;9.182;2022-08-21T00:31:49;17.40;99.90
17807;DHT22;9027;48.938;9.182;2022-08-21T00:33:20;17.30;99.90
17807;DHT22;9027;48.938;9.182;2022-08-21T00:34:53;17.30;99.90
17807;DHT22;9027;48.938;9.182;2022-08-21T00:36:25;17.30;99.90
17807;DHT22;9027;48.938;9.182;2022-08-21T00:37:58;17.30;99.90
17807;DHT22;9027;48.938;9.182;2022-08-21T00:39:30;17.30;99.90
17807;DHT22;9027;48.938;9.182;2022-08-21T00:41:05;17.30;99.90
17807;DHT22;9027;48.938;9.182;2022-08-21T00:42:36;17.20;99.90
17807;DHT22;9027;48.938;9.182;2022-08-21T00:44:12;17.10;99.90
17807;DHT22;9027;48.938;9.182;2022-08-21T00:45:44;17.10;99.90
17807;DHT22;9027;48.938;9.182;2022-08-21T00:47:17;17.10;99.90
17807;DHT22;9027;48.938;9.182;2022-08-21T00:48:49;17.10;99.90
17807;DHT22;9027;48.938;9.182;2022-08-21T00:50:20;17.10;99.90
17807;DHT22;9027;48.938;9.182;2022-08-21T00:51:55;17.10;99.90
17807;DHT22;9027;48.938;9.182;2022-08-21T00:53:31;17.10;99.90
17807;DHT22;9027;48.938;9.182;2022-08-21T00:55:06;17.10;99.90
17807;DHT22;9027;48.938;9.182;2022-08-21T00:56:39;17.10;99.90
17807;DHT22;9027;48.938;9.182;2022-08-21T00:58:13;17.10;99.90
17807;DHT22;9027;48.938;9.182;2022-08-21T00:59:47;17.10;99.90
17807;DHT22;9027;48.938;9.182;2022-08-21T01:01:20;17.00;99.90
17807;DHT22;9027;48.938;9.182;2022-08-21T01:02:51;17.10;99.90
17807;DHT22;9027;48.938;9.182;2022-08-21T01:04:23;17.10;99.90
17807;DHT22;9027;48.938;9.182;2022-08-21T01:05:55;17.10;99.90
17807;DHT22;9027;48.938;9.182;2022-08-21T01:07:27;17.10;99.90
17807;DHT22;9027;48.938;9.182;2022-08-21T01:09:00;17.10;99.90
17807;DHT22;9027;48.938;9.182;2022-08-21T01:10:33;17.10;99.90
17807;DHT22;9027;48.938;9.182;2022-08-21T01:12:06;17.10;99.90
17807;DHT22;9027;48.938;9.182;2022-08-21T01:13:38;17.10;99.90
17807;DHT22;9027;48.938;9.182;2022-08-21T01:15:17;17.10;99.90
17807;DHT22;9027;48.938;9.182;2022-08-21T01:16:52;17.00;99.90
17807;DHT22;9027;48.938;9.182;2022-08-21T01:18:24;17.00;99.90
17807;DHT22;9027;48.938;9.182;2022-08-21T01:19:57;17.00;99.90
17807;DHT22;9027;48.938;9.182;2022-08-21T01:21:31;16.90;99.90
17807;DHT22;9027;48.938;9.182;2022-08-21T01:23:05;16.90;99.90
17807;DHT22;9027;48.938;9.182;2022-08-21T01:24:36;16.70;99.90
17807;DHT22;9027;48.938;9.182;2022-08-21T01:26:08;16.70;99.90
17807;DHT22;9027;48.938;9.182;2022-08-21T01:27:39;16.60;99.90
17807;DHT22;9027;48.938;9.182;2022-08-21T01:29:14;16.60;99.90
17807;DHT22;9027;48.938;9.182;2022-08-21T01:30:48;16.60;99.90
17807;DHT22;9027;48.938;9.182;2022-08-21T01:32:21;16.60;99.90
17807;DHT22;9027;48.938;9.182;2022-08-21T01:33:55;16.60;99.90
17807;DHT22;9027;48.938;9.182;2022-08-21T01:35:26;16.60;99.90
17807;DHT22;9027;48.938;9.182;2022-08-21T01:37:00;16.60;99.90
17807;DHT22;9027;48.938;9.182;2022-08-21T01:38:31;16.40;99.90
17807;DHT22;9027;48.938;9.182;2022-08-21T01:40:04;16.20;99.90
17807;DHT22;9027;48.938;9.182;2022-08-21T01:41:37;16.20;99.90
17807;DHT22;9027;48.938;9.182;2022-08-21T01:43:09;16.30;99.90
17807;DHT22;9027;48.938;9.182;2022-08-21T01:44:40;16.30;99.90
17807;DHT22;9027;48.938;9.182;2022-08-21T01:46:13;16.40;99.90
17807;DHT22;9027;48.938;9.182;2022-08-21T01:47:45;16.30;99.90
17807;DHT22;9027;48.938;9.182;2022-08-21T01:49:17;16.30;99.90
17807;DHT22;9027;48.938;9.182;2022-08-21T01:50:49;16.40;99.90
17807;DHT22;9027;48.938;9.182;2022-08-21T01:52:22;16.40;99.90
17807;DHT22;9027;48.938;9.182;2022-08-21T01:53:53;16.40;99.90
17807;DHT22;9027;48.938;9.182;2022-08-21T01:55:25;16.40;99.90
17807;DHT22;9027;48.938;9.182;2022-08-21T01:56:58;16.30;99.90
17807;DHT22;9027;48.938;9.182;2022-08-21T01:58:31;16.40;99.90
17807;DHT22;9027;48.938;9.182;2022-08-21T02:00:05;16.40;99.90
17807;DHT22;9027;48.938;9.182;2022-08-21T02:01:42;16.40;99.90
17807;DHT22;9027;48.938;9.182;2022-08-21T02:03:14;16.40;99.90
17807;DHT22;9027;48.938;9.182;2022-08-21T02:04:46;16.40;99.90
17807;DHT22;9027;48.938;9.182;2022-08-21T02:06:18;16.40;99.90
17807;DHT22;9027;48.938;9.182;2022-08-21T02:07:54;16.40;99.90
17807;DHT22;9027;48.938;9.182;2022-08-21T02:09:27;16.30;99.90
17807;DHT22;9027;48.938;9.182;2022-08-21T02:10:59;16.40;99.90
17807;DHT22;9027;48.938;9.182;2022-08-21T02:12:31;16.40;99.90
17807;DHT22;9027;48.938;9.182;2022-08-21T02:14:03;16.40;99.90
17807;DHT22;9027;48.938;9.182;2022-08-21T02:15:35;16.40;99.90
17807;DHT22;9027;48.938;9.182;2022-08-21T02:17:07;16.40;99.90
17807;DHT22;9027;48.938;9.182;2022-08-21T02:18:39;16.40;99.90
17807;DHT22;9027;48.938;9.182;2022-08-21T02:20:14;16.40;99.90
17807;DHT22;9027;48.938;9.182;2022-08-21T02:21:46;16.30;99.90
17807;DHT22;9027;48.938;9.182;2022-08-21T02:23:20;16.30;99.90
17807;DHT22;9027;48.938;9.182;2022-08-21T02:24:52;16.30;99.90
17807;DHT22;9027;48.938;9.182;2022-08-21T02:26:23;16.30;99.90
17807;DHT22;9027;48.938;9.182;2022-08-21T02:27:55;16.30;99.90
17807;DHT22;9027;48.938;9.182;2022-08-21T02:29:27;16.30;99.90
17807;DHT22;9027;48.938;9.182;2022-08-21T02:30:59;16.20;99.90
17807;DHT22;9027;48.938;9.182;2022-08-21T02:32:32;16.10;99.90
17807;DHT22;9027;48.938;9.182;2022-08-21T02:34:03;16.00;99.90
17807;DHT22;9027;48.938;9.182;2022-08-21T02:35:35;15.80;99.90
17807;DHT22;9027;48.938;9.182;2022-08-21T02:37:07;15.70;99.90
17807;DHT22;9027;48.938;9.182;2022-08-21T02:38:41;15.70;99.90
17807;DHT22;9027;48.938;9.182;2022-08-21T02:40:14;15.70;99.90
17807;DHT22;9027;48.938;9.182;2022-08-21T02:41:45;15.70;99.90
17807;DHT22;9027;48.938;9.182;2022-08-21T02:43:18;15.80;99.90
17807;DHT22;9027;48.938;9.182;2022-08-21T02:44:50;15.80;99.90
17807;DHT22;9027;48.938;9.182;2022-08-21T02:46:22;15.90;99.90
17807;DHT22;9027;48.938;9.182;2022-08-21T02:47:56;15.90;99.90
17807;DHT22;9027;48.938;9.182;2022-08-21T02:49:27;15.90;99.90
17807;DHT22;9027;48.938;9.182;2022-08-21T02:51:03;15.60;99.90
17807;DHT22;9027;48.938;9.182;2022-08-21T02:52:35;15.50;99.90
17807;DHT22;9027;48.938;9.182;2022-08-21T02:54:08;15.40;99.90
17807;DHT22;9027;48.938;9.182;2022-08-21T02:55:40;15.50;99.90
17807;DHT22;9027;48.938;9.182;2022-08-21T02:57:11;15.50;99.90
17807;DHT22;9027;48.938;9.182;2022-08-21T02:58:45;15.40;99.90
17807;DHT22;9027;48.938;9.182;2022-08-21T03:00:18;15.40;99.90
17807;DHT22;9027;48.938;9.182;2022-08-21T03:01:49;15.50;99.90
17807;DHT22;9027;48.938;9.182;2022-08-21T03:03:21;15.50;99.90
17807;DHT22;9027;48.938;9.182;2022-08-21T03:04:53;15.50;99.90
17807;DHT22;9027;48.938;9.182;2022-08-21T03:06:26;15.50;99.90
17807;DHT22;9027;48.938;9.182;2022-08-21T03:08:00;15.50;99.90
17807;DHT22;9027;48.938;9.182;2022-08-21T03:09:32;15.40;99.90
17807;DHT22;9027;48.938;9.182;2022-08-21T03:11:04;15.40;99.90
17807;DHT22;9027;48.938;9.182;2022-08-21T03:12:36;15.40;99.90
17807;DHT22;9027;48.938;9.182;2022-08-21T03:14:08;15.40;99.90
17807;DHT22;9027;48.938;9.182;2022-08-21T03:15:41;15.40;99.90
17807;DHT22;9027;48.938;9.182;2022-08-21T03:17:13;15.50;99.90
17807;DHT22;9027;48.938;9.182;2022-08-21T03:18:45;15.50;99.90
17807;DHT22;9027;48.938;9.182;2022-08-21T03:20:21;15.50;99.90
17807;DHT22;9027;48.938;9.182;2022-08-21T03:21:54;15.50;99.90
17807;DHT22;9027;48.938;9.182;2022-08-21T03:23:26;15.50;99.90
17807;DHT22;9027;48.938;9.182;2022-08-21T03:24:58;15.50;99.90
17807;DHT22;9027;48.938;9.182;2022-08-21T03:26:31;15.50;99.90
17807;DHT22;9027;48.938;9.182;2022-08-21T03:28:06;15.50;99.90
17807;DHT22;9027;48.938;9.182;2022-08-21T03:29:38;15.50;99.90
17807;DHT22;9027;48.938;9.182;2022-08-21T03:31:10;15.50;99.90
17807;DHT22;9027;48.938;9.182;2022-08-21T03:32:42;15.50;99.90
17807;DHT22;9027;48.938;9.182;2022-08-21T03:34:13;15.50;99.90
17807;DHT22;9027;48.938;9.182;2022-08-21T03:35:48;15.50;99.90
17807;DHT22;9027;48.938;9.182;2022-08-21T03:37:21;15.50;99.90
17807;DHT22;9027;48.938;9.182;2022-08-21T03:38:54;15.50;99.90
17807;DHT22;9027;48.938;9.182;2022-08-21T03:40:28;15.50;99.90
17807;DHT22;9027;48.938;9.182;2022-08-21T03:41:59;15.50;99.90
17807;DHT22;9027;48.938;9.182;2022-08-21T03:43:32;15.50;99.90
17807;DHT22;9027;48.938;9.182;2022-08-21T03:45:05;15.50;99.90
17807;DHT22;9027;48.938;9.182;2022-08-21T03:46:37;15.40;99.90
17807;DHT22;9027;48.938;9.182;2022-08-21T03:48:10;15.40;99.90
17807;DHT22;9027;48.938;9.182;2022-08-21T03:49:42;15.30;99.90
17807;DHT22;9027;48.938;9.182;2022-08-21T03:51:14;15.30;99.90
17807;DHT22;9027;48.938;9.182;2022-08-21T03:52:46;15.30;99.90
17807;DHT22;9027;48.938;9.182;2022-08-21T03:54:17;15.30;99.90
17807;DHT22;9027;48.938;9.182;2022-08-21T03:55:51;15.30;99.90
17807;DHT22;9027;48.938;9.182;2022-08-21T03:57:24;15.40;99.90
17807;DHT22;9027;48.938;9.182;2022-08-21T03:58:55;15.40;99.90
17807;DHT22;9027;48.938;9.182;2022-08-21T04:00:27;15.40;99.90
17807;DHT22;9027;48.938;9.182;2022-08-21T04:01:59;15.40;99.90
17807;DHT22;9027;48.938;9.182;2022-08-21T04:03:33;15.30;99.90
17807;DHT22;9027;48.938;9.182;2022-08-21T04:05:06;15.30;99.90
17807;DHT22;9027;48.938;9.182;2022-08-21T04:06:38;15.30;99.90
17807;DHT22;9027;48.938;9.182;2022-08-21T04:08:10;15.30;99.90
17807;DHT22;9027;48.938;9.182;2022-08-21T04:09:41;15.30;99.90
17807;DHT22;9027;48.938;9.182;2022-08-21T04:11:15;15.20;99.90
17807;DHT22;9027;48.938;9.182;2022-08-21T04:12:47;15.20;99.90
17807;DHT22;9027;48.938;9.182;2022-08-21T04:14:19;15.20;99.90
17807;DHT22;9027;48.938;9.182;2022-08-21T04:15:51;15.30;99.90
17807;DHT22;9027;48.938;9.182;2022-08-21T04:17:22;15.30;99.90
17807;DHT22;9027;48.938;9.182;2022-08-21T04:18:54;15.20;99.90
17807;DHT22;9027;48.938;9.182;2022-08-21T04:20:27;15.10;99.90
17807;DHT22;9027;48.938;9.182;2022-08-21T04:21:59;15.10;99.90
17807;DHT22;9027;48.938;9.182;2022-08-21T04:23:31;15.00;99.90
17807;DHT22;9027;48.938;9.182;2022-08-21T04:25:03;15.00;99.90
17807;DHT22;9027;48.938;9.182;2022-08-21T04:26:36;15.10;99.90
17807;DHT22;9027;48.938;9.182;2022-08-21T04:28:09;15.10;99.90
17807;DHT22;9027;48.938;9.182;2022-08-21T04:29:41;15.10;99.90
17807;DHT22;9027;48.938;9.182;2022-08-21T04:31:13;15.10;99.90
17807;DHT22;9027;48.938;9.182;2022-08-21T04:32:47;15.00;99.90
17807;DHT22;9027;48.938;9.182;2022-08-21T04:34:20;14.90;99.90
17807;DHT22;9027;48.938;9.182;2022-08-21T04:35:52;14.80;99.90
17807;DHT22;9027;48.938;9.182;2022-08-21T04:37:24;14.80;99.90
17807;DHT22;9027;48.938;9.182;2022-08-21T04:38:55;14.80;99.90
17807;DHT22;9027;48.938;9.182;2022-08-21T04:40:27;14.80;99.90
17807;DHT22;9027;48.938;9.182;2022-08-21T04:42:01;14.70;99.90
17807;DHT22;9027;48.938;9.182;2022-08-21T04:43:33;14.70;99.90
17807;DHT22;9027;48.938;9.182;2022-08-21T04:45:06;14.80;99.90
17807;DHT22;9027;48.938;9.182;2022-08-21T04:46:37;14.90;99.90
17807;DHT22;9027;48.938;9.182;2022-08-21T04:48:11;14.90;99.90
17807;DHT22;9027;48.938;9.182;2022-08-21T04:49:43;15.00;99.90
17807;DHT22;9027;48.938;9.182;2022-08-21T04:51:18;15.10;99.90
17807;DHT22;9027;48.938;9.182;2022-08-21T04:52:52;15.40;99.90
17807;DHT22;9027;48.938;9.182;2022-08-21T04:54:24;15.60;99.90
17807;DHT22;9027;48.938;9.182;2022-08-21T04:55:57;15.90;99.90
17807;DHT22;9027;48.938;9.182;2022-08-21T04:57:33;16.20;99.90
17807;DHT22;9027;48.938;9.182;2022-08-21T04:59:11;16.50;99.90
17807;DHT22;9027;48.938;9.182;2022-08-21T05:00:45;16.80;99.90
17807;DHT22;9027;48.938;9.182;2022-08-21T05:02:17;17.10;99.90
17807;DHT22;9027;48.938;9.182;2022-08-21T05:03:52;17.30;99.90
17807;DHT22;9027;48.938;9.182;2022-08-21T05:05:27;17.70;99.90
17807;DHT22;9027;48.938;9.182;2022-08-21T05:07:02;18.00;99.90
17807;DHT22;9027;48.938;9.182;2022-08-21T05:08:34;18.20;99.90
17807;DHT22;9027;48.938;9.182;2022-08-21T05:10:07;18.50;99.90
17807;DHT22;9027;48.938;9.182;2022-08-21T05:11:39;18.70;99.90
17807;DHT22;9027;48.938;9.182;2022-08-21T05:13:13;18.80;99.90
17807;DHT22;9027;48.938;9.182;2022-08-21T05:14:45;18.90;99.90
17807;DHT22;9027;48.938;9.182;2022-08-21T05:16:17;19.00;99.90
17807;DHT22;9027;48.938;9.182;2022-08-21T05:19:40;19.30;99.90
17807;DHT22;9027;48.938;9.182;2022-08-21T05:21:12;19.40;99.90
17807;DHT22;9027;48.938;9.182;2022-08-21T05:22:43;19.00;99.90
17807;DHT22;9027;48.938;9.182;2022-08-21T05:24:16;19.20;99.90
17807;DHT22;9027;48.938;9.182;2022-08-21T05:25:48;19.70;99.90
17807;DHT22;9027;48.938;9.182;2022-08-21T05:27:20;20.10;99.90
17807;DHT22;9027;48.938;9.182;2022-08-21T05:28:53;20.30;99.90
17807;DHT22;9027;48.938;9.182;2022-08-21T05:30:25;20.20;99.90
17807;DHT22;9027;48.938;9.182;2022-08-21T05:31:57;20.50;99.90
17807;DHT22;9027;48.938;9.182;2022-08-21T05:33:29;20.80;99.90
17807;DHT22;9027;48.938;9.182;2022-08-21T05:35:01;21.20;99.90
17807;DHT22;9027;48.938;9.182;2022-08-21T05:36:32;21.10;99.90
17807;DHT22;9027;48.938;9.182;2022-08-21T05:38:04;21.00;99.90
17807;DHT22;9027;48.938;9.182;2022-08-21T05:39:36;21.20;99.90
17807;DHT22;9027;48.938;9.182;2022-08-21T05:41:08;21.60;99.90
17807;DHT22;9027;48.938;9.182;2022-08-21T05:42:41;22.00;99.90
17807;DHT22;9027;48.938;9.182;2022-08-21T05:44:14;22.40;99.90
17807;DHT22;9027;48.938;9.182;2022-08-21T05:45:46;22.70;99.90
17807;DHT22;9027;48.938;9.182;2022-08-21T05:47:18;22.80;99.90
17807;DHT22;9027;48.938;9.182;2022-08-21T05:48:50;22.80;99.90
17807;DHT22;9027;48.938;9.182;2022-08-21T05:50:22;23.30;99.90
17807;DHT22;9027;48.938;9.182;2022-08-21T05:51:54;23.80;99.90
17807;DHT22;9027;48.938;9.182;2022-08-21T05:53:26;24.10;99.90
17807;DHT22;9027;48.938;9.182;2022-08-21T05:54:58;24.30;99.90
17807;DHT22;9027;48.938;9.182;2022-08-21T05:56:30;24.40;99.90
17807;DHT22;9027;48.938;9.182;2022-08-21T05:58:01;24.60;99.90
17807;DHT22;9027;48.938;9.182;2022-08-21T05:59:35;24.60;99.90
17807;DHT22;9027;48.938;9.182;2022-08-21T06:01:08;24.80;99.90
17807;DHT22;9027;48.938;9.182;2022-08-21T06:02:40;25.10;99.90
17807;DHT22;9027;48.938;9.182;2022-08-21T06:04:12;25.00;99.90
17807;DHT22;9027;48.938;9.182;2022-08-21T06:05:45;24.80;99.90
17807;DHT22;9027;48.938;9.182;2022-08-21T06:07:16;25.00;99.90
17807;DHT22;9027;48.938;9.182;2022-08-21T06:08:48;24.70;99.90
17807;DHT22;9027;48.938;9.182;2022-08-21T06:10:20;24.80;99.90
17807;DHT22;9027;48.938;9.182;2022-08-21T06:11:52;25.10;99.90
17807;DHT22;9027;48.938;9.182;2022-08-21T06:13:24;25.30;99.90
17807;DHT22;9027;48.938;9.182;2022-08-21T06:14:57;25.20;99.90
17807;DHT22;9027;48.938;9.182;2022-08-21T06:16:29;25.20;99.90
17807;DHT22;9027;48.938;9.182;2022-08-21T06:18:01;25.40;99.90
17807;DHT22;9027;48.938;9.182;2022-08-21T06:19:33;25.40;99.90
17807;DHT22;9027;48.938;9.182;2022-08-21T06:21:05;24.90;99.90
17807;DHT22;9027;48.938;9.182;2022-08-21T06:22:37;24.80;99.90
17807;DHT22;9027;48.938;9.182;2022-08-21T06:24:09;24.80;99.90
17807;DHT22;9027;48.938;9.182;2022-08-21T06:25:41;24.80;99.90
17807;DHT22;9027;48.938;9.182;2022-08-21T06:27:13;23.90;99.90
17807;DHT22;9027;48.938;9.182;2022-08-21T06:28:45;23.10;99.90
17807;DHT22;9027;48.938;9.182;2022-08-21T06:30:19;22.90;99.90
17807;DHT22;9027;48.938;9.182;2022-08-21T06:31:51;22.10;99.90
17807;DHT22;9027;48.938;9.182;2022-08-21T06:33:23;21.60;99.90
17807;DHT22;9027;48.938;9.182;2022-08-21T06:34:54;21.70;99.90
17807;DHT22;9027;48.938;9.182;2022-08-21T06:36:26;21.90;99.90
17807;DHT22;9027;48.938;9.182;2022-08-21T06:37:58;21.90;99.90
17807;DHT22;9027;48.938;9.182;2022-08-21T06:39:30;22.40;99.90
17807;DHT22;9027;48.938;9.182;2022-08-21T06:41:01;22.70;99.90
17807;DHT22;9027;48.938;9.182;2022-08-21T06:42:33;22.70;99.90
17807;DHT22;9027;48.938;9.182;2022-08-21T06:44:05;22.80;99.90
17807;DHT22;9027;48.938;9.182;2022-08-21T06:45:39;23.10;99.90
17807;DHT22;9027;48.938;9.182;2022-08-21T06:47:11;23.10;99.90
17807;DHT22;9027;48.938;9.182;2022-08-21T06:48:43;23.10;99.90
17807;DHT22;9027;48.938;9.182;2022-08-21T06:50:14;22.90;99.90
17807;DHT22;9027;48.938;9.182;2022-08-21T06:51:45;23.10;99.90
17807;DHT22;9027;48.938;9.182;2022-08-21T06:53:19;23.10;99.90
17807;DHT22;9027;48.938;9.182;2022-08-21T06:54:50;23.20;99.90
17807;DHT22;9027;48.938;9.182;2022-08-21T06:56:22;23.40;99.90
17807;DHT22;9027;48.938;9.182;2022-08-21T06:57:54;23.70;99.90
17807;DHT22;9027;48.938;9.182;2022-08-21T06:59:25;24.00;99.90
17807;DHT22;9027;48.938;9.182;2022-08-21T07:00:58;24.30;99.90
17807;DHT22;9027;48.938;9.182;2022-08-21T07:02:30;24.40;99.90
17807;DHT22;9027;48.938;9.182;2022-08-21T07:04:04;24.60;99.90
17807;DHT22;9027;48.938;9.182;2022-08-21T07:05:35;24.80;99.90
17807;DHT22;9027;48.938;9.182;2022-08-21T07:07:07;24.80;99.90
17807;DHT22;9027;48.938;9.182;2022-08-21T07:08:39;24.80;99.90
17807;DHT22;9027;48.938;9.182;2022-08-21T07:10:11;24.80;99.90
17807;DHT22;9027;48.938;9.182;2022-08-21T07:11:45;24.60;99.90
17807;DHT22;9027;48.938;9.182;2022-08-21T07:13:19;24.40;99.90
17807;DHT22;9027;48.938;9.182;2022-08-21T07:14:52;24.40;99.90
17807;DHT22;9027;48.938;9.182;2022-08-21T07:16:25;24.70;99.90
17807;DHT22;9027;48.938;9.182;2022-08-21T07:17:58;24.90;99.90
17807;DHT22;9027;48.938;9.182;2022-08-21T07:19:30;25.10;99.90
17807;DHT22;9027;48.938;9.182;2022-08-21T07:21:02;25.30;99.90
17807;DHT22;9027;48.938;9.182;2022-08-21T07:22:35;25.60;99.90
17807;DHT22;9027;48.938;9.182;2022-08-21T07:24:08;25.80;99.90
17807;DHT22;9027;48.938;9.182;2022-08-21T07:25:40;25.90;99.90
17807;DHT22;9027;48.938;9.182;2022-08-21T07:27:12;25.90;99.90
17807;DHT22;9027;48.938;9.182;2022-08-21T07:28:44;25.50;99.90
17807;DHT22;9027;48.938;9.182;2022-08-21T07:30:16;25.50;99.90
17807;DHT22;9027;48.938;9.182;2022-08-21T07:31:49;25.70;99.90
17807;DHT22;9027;48.938;9.182;2022-08-21T07:33:21;25.70;99.90
17807;DHT22;9027;48.938;9.182;2022-08-21T07:34:53;25.90;99.90
17807;DHT22;9027;48.938;9.182;2022-08-21T07:36:25;25.80;99.90
17807;DHT22;9027;48.938;9.182;2022-08-21T07:37:57;25.90;99.90
17807;DHT22;9027;48.938;9.182;2022-08-21T07:39:29;26.00;99.90
17807;DHT22;9027;48.938;9.182;2022-08-21T07:41:13;26.30;99.90
17807;DHT22;9027;48.938;9.182;2022-08-21T07:42:47;26.60;99.90
17807;DHT22;9027;48.938;9.182;2022-08-21T07:44:20;26.80;99.90
17807;DHT22;9027;48.938;9.182;2022-08-21T07:45:52;26.90;99.90
17807;DHT22;9027;48.938;9.182;2022-08-21T07:47:26;26.90;99.90
17807;DHT22;9027;48.938;9.182;2022-08-21T07:48:58;26.70;99.90
17807;DHT22;9027;48.938;9.182;2022-08-21T07:50:30;26.70;99.90
17807;DHT22;9027;48.938;9.182;2022-08-21T07:52:02;26.80;99.90
17807;DHT22;9027;48.938;9.182;2022-08-21T07:53:34;27.00;99.90
17807;DHT22;9027;48.938;9.182;2022-08-21T07:55:07;26.10;99.90
17807;DHT22;9027;48.938;9.182;2022-08-21T07:56:40;25.90;99.90
17807;DHT22;9027;48.938;9.182;2022-08-21T07:58:12;26.10;99.90
17807;DHT22;9027;48.938;9.182;2022-08-21T07:59:44;26.30;99.90
17807;DHT22;9027;48.938;9.182;2022-08-21T08:01:16;26.60;99.90
17807;DHT22;9027;48.938;9.182;2022-08-21T08:02:50;26.60;99.90
17807;DHT22;9027;48.938;9.182;2022-08-21T08:04:23;26.60;99.80
17807;DHT22;9027;48.938;9.182;2022-08-21T08:05:56;26.50;99.90
17807;DHT22;9027;48.938;9.182;2022-08-21T08:07:27;26.60;99.70
17807;DHT22;9027;48.938;9.182;2022-08-21T08:08:59;26.70;99.60
17807;DHT22;9027;48.938;9.182;2022-08-21T08:10:33;26.70;99.10
17807;DHT22;9027;48.938;9.182;2022-08-21T08:12:05;26.40;99.60
17807;DHT22;9027;48.938;9.182;2022-08-21T08:13:38;26.30;99.70
17807;DHT22;9027;48.938;9.182;2022-08-21T08:15:13;26.30;99.70
17807;DHT22;9027;48.938;9.182;2022-08-21T08:16:45;26.40;99.80
17807;DHT22;9027;48.938;9.182;2022-08-21T08:18:19;26.60;99.80
17807;DHT22;9027;48.938;9.182;2022-08-21T08:19:51;27.00;99.20
17807;DHT22;9027;48.938;9.182;2022-08-21T08:21:23;27.20;98.90
17807;DHT22;9027;48.938;9.182;2022-08-21T08:22:55;27.60;98.30
17807;DHT22;9027;48.938;9.182;2022-08-21T08:24:27;27.90;98.30
17807;DHT22;9027;48.938;9.182;2022-08-21T08:25:59;28.10;96.70
17807;DHT22;9027;48.938;9.182;2022-08-21T08:27:33;27.80;96.60
17807;DHT22;9027;48.938;9.182;2022-08-21T08:29:04;27.60;97.50
17807;DHT22;9027;48.938;9.182;2022-08-21T08:30:36;27.60;96.60
17807;DHT22;9027;48.938;9.182;2022-08-21T08:32:09;27.70;95.90
17807;DHT22;9027;48.938;9.182;2022-08-21T08:33:42;27.50;96.50
17807;DHT22;9027;48.938;9.182;2022-08-21T08:35:15;27.50;96.10
17807;DHT22;9027;48.938;9.182;2022-08-21T08:36:47;27.60;95.50
17807;DHT22;9027;48.938;9.182;2022-08-21T08:38:20;27.60;95.90
17807;DHT22;9027;48.938;9.182;2022-08-21T08:39:53;27.40;95.70
17807;DHT22;9027;48.938;9.182;2022-08-21T08:41:25;27.20;96.10
17807;DHT22;9027;48.938;9.182;2022-08-21T08:42:57;27.10;96.70
17807;DHT22;9027;48.938;9.182;2022-08-21T08:44:29;27.20;96.20
17807;DHT22;9027;48.938;9.182;2022-08-21T08:46:12;27.30;96.30
17807;DHT22;9027;48.938;9.182;2022-08-21T08:47:47;27.40;95.60
17807;DHT22;9027;48.938;9.182;2022-08-21T08:49:36;27.30;96.30
17807;DHT22;9027;48.938;9.182;2022-08-21T08:51:16;27.10;96.10
17807;DHT22;9027;48.938;9.182;2022-08-21T08:52:53;26.80;96.20
17807;DHT22;9027;48.938;9.182;2022-08-21T08:54:31;26.80;96.60
17807;DHT22;9027;48.938;9.182;2022-08-21T08:56:05;26.80;96.60
17807;DHT22;9027;48.938;9.182;2022-08-21T08:57:38;27.20;95.10
17807;DHT22;9027;48.938;9.182;2022-08-21T08:59:16;27.50;95.10
17807;DHT22;9027;48.938;9.182;2022-08-21T09:00:52;27.60;95.30
17807;DHT22;9027;48.938;9.182;2022-08-21T09:02:24;27.50;95.10
17807;DHT22;9027;48.938;9.182;2022-08-21T09:03:58;27.20;96.10
17807;DHT22;9027;48.938;9.182;2022-08-21T09:05:41;27.60;95.90
17807;DHT22;9027;48.938;9.182;2022-08-21T09:07:22;27.80;94.40
17807;DHT22;9027;48.938;9.182;2022-08-21T09:09:04;27.80;94.10
17807;DHT22;9027;48.938;9.182;2022-08-21T09:10:56;28.10;93.70
17807;DHT22;9027;48.938;9.182;2022-08-21T09:12:37;28.10;92.90
17807;DHT22;9027;48.938;9.182;2022-08-21T09:14:16;28.10;93.20
17807;DHT22;9027;48.938;9.182;2022-08-21T09:16:00;28.30;93.00
17807;DHT22;9027;48.938;9.182;2022-08-21T09:17:48;28.50;93.10
17807;DHT22;9027;48.938;9.182;2022-08-21T09:19:45;28.50;92.60
17807;DHT22;9027;48.938;9.182;2022-08-21T09:21:28;29.00;91.50
17807;DHT22;9027;48.938;9.182;2022-08-21T09:23:16;29.40;90.80
17807;DHT22;9027;48.938;9.182;2022-08-21T09:24:55;29.80;91.10
17807;DHT22;9027;48.938;9.182;2022-08-21T09:26:34;30.00;86.80
17807;DHT22;9027;48.938;9.182;2022-08-21T09:28:08;29.60;87.70
17807;DHT22;9027;48.938;9.182;2022-08-21T09:29:44;29.40;88.20
17807;DHT22;9027;48.938;9.182;2022-08-21T09:31:22;29.20;88.80
17807;DHT22;9027;48.938;9.182;2022-08-21T09:32:55;28.90;87.70
17807;DHT22;9027;48.938;9.182;2022-08-21T09:34:29;28.70;88.10
17807;DHT22;9027;48.938;9.182;2022-08-21T09:36:02;28.50;89.10
17807;DHT22;9027;48.938;9.182;2022-08-21T09:37:48;28.20;90.00
17807;DHT22;9027;48.938;9.182;2022-08-21T09:39:24;28.30;89.90
17807;DHT22;9027;48.938;9.182;2022-08-21T09:40:58;28.40;88.40
17807;DHT22;9027;48.938;9.182;2022-08-21T09:42:32;28.70;87.60
17807;DHT22;9027;48.938;9.182;2022-08-21T09:44:05;29.10;86.70
17807;DHT22;9027;48.938;9.182;2022-08-21T09:45:39;29.70;85.20
17807;DHT22;9027;48.938;9.182;2022-08-21T09:47:12;30.00;84.60
17807;DHT22;9027;48.938;9.182;2022-08-21T09:48:45;30.20;80.40
17807;DHT22;9027;48.938;9.182;2022-08-21T09:50:21;30.00;82.00
17807;DHT22;9027;48.938;9.182;2022-08-21T09:51:53;29.10;83.10
17807;DHT22;9027;48.938;9.182;2022-08-21T09:53:28;28.60;84.40
17807;DHT22;9027;48.938;9.182;2022-08-21T09:55:01;28.40;85.90
17807;DHT22;9027;48.938;9.182;2022-08-21T09:56:55;28.40;85.50
17807;DHT22;9027;48.938;9.182;2022-08-21T09:58:47;28.50;86.30
17807;DHT22;9027;48.938;9.182;2022-08-21T10:00:25;29.00;83.60